createdAt,value
2022-10-01T13:56:13.352Z,26.10
2022-10-01T13:57:15.554Z,31.30
2022-10-01T14:54:43.765Z,37.90
2022-10-01T14:55:45.893Z,40.00
2022-10-01T14:56:44.742Z,34.70
2022-10-01T14:57:44.929Z,33.20
2022-10-01T15:00:55.291Z,33.00
2022-10-01T15:01:56.116Z,36.80
2022-10-01T15:02:56.123Z,33.00
2022-10-01T15:03:56.162Z,36.70
2022-10-01T15:04:56.113Z,35.50
2022-10-01T15:05:56.416Z,37.70
2022-10-01T15:06:56.024Z,35.50
2022-10-01T15:07:56.027Z,36.10
2022-10-01T15:08:56.069Z,35.30
2022-10-01T15:10:04.921Z,36.70
2022-10-01T15:10:55.979Z,37.90
2022-10-01T15:11:58.072Z,39.00
2022-10-01T15:12:55.969Z,36.60
2022-10-01T15:13:55.985Z,36.30
2022-10-01T15:14:56.795Z,39.20
2022-10-01T15:18:54.703Z,38.40
2022-10-01T15:19:54.780Z,39.00
2022-10-01T15:20:55.720Z,40.20
2022-10-01T15:21:55.787Z,43.40
2022-10-01T15:24:56.470Z,41.20
2022-10-01T15:25:57.337Z,44.70
2022-10-01T15:26:57.396Z,42.40
2022-10-01T15:37:06.766Z,39.80
2022-10-01T15:38:06.545Z,40.50
2022-10-01T15:39:07.305Z,38.40
2022-10-01T15:44:24.069Z,43.40
2022-10-01T15:44:48.685Z,41.90
2022-10-01T15:45:48.715Z,41.50
2022-10-01T15:46:49.599Z,47.10
2022-10-01T15:47:49.870Z,44.10
2022-10-01T15:48:49.426Z,49.10
2022-10-01T15:49:48.693Z,46.40
2022-10-01T15:50:48.563Z,44.40
2022-10-01T15:51:48.595Z,45.50
2022-10-01T15:52:48.636Z,46.80
2022-10-01T15:56:07.066Z,56.40
2022-10-01T15:57:08.006Z,55.90
2022-10-01T15:58:09.235Z,53.00
2022-10-01T15:59:08.793Z,45.10
2022-10-01T16:00:10.761Z,40.60
2022-10-01T16:01:08.183Z,39.30
2022-10-01T16:02:07.978Z,39.50
2022-10-01T16:03:07.972Z,38.70
2022-10-01T16:04:09.855Z,41.30
2022-10-01T16:05:07.973Z,41.80
2022-10-01T16:06:10.383Z,45.40
2022-10-01T16:07:07.927Z,42.80
2022-10-01T16:08:07.854Z,45.00
2022-10-01T16:09:07.885Z,45.40
2022-10-01T16:10:07.923Z,41.30
2022-10-01T16:11:08.786Z,38.40
2022-10-01T16:12:08.766Z,37.00
2022-10-01T16:13:46.359Z,36.40
2022-10-01T16:14:07.817Z,34.00
2022-10-01T16:15:08.207Z,36.70
2022-10-01T16:16:07.945Z,38.30
2022-10-01T16:17:07.790Z,36.80
2022-10-01T16:18:07.824Z,35.70
2022-10-01T16:19:07.809Z,33.00
2022-10-01T16:20:10.054Z,36.10
2022-10-01T16:21:08.698Z,38.30
2022-10-01T16:22:10.285Z,38.60
2022-10-01T16:37:18.508Z,37.30
2022-10-01T16:38:10.234Z,38.30
2022-10-01T16:39:32.624Z,43.00
2022-10-01T16:40:11.683Z,35.60
2022-10-01T16:41:08.307Z,37.20
2022-10-01T16:42:23.695Z,37.60
2022-10-01T16:43:08.293Z,35.80
2022-10-01T16:44:32.605Z,33.00
2022-10-01T16:45:08.271Z,35.60
2022-10-01T16:46:08.988Z,37.00
2022-10-01T16:56:04.277Z,35.10
2022-10-01T16:57:07.627Z,36.00
2022-10-01T16:58:05.016Z,41.20
2022-10-01T16:59:05.410Z,33.20
2022-10-01T17:00:04.477Z,31.40
2022-10-01T17:01:04.491Z,30.70
2022-10-01T17:02:04.483Z,31.50
2022-10-01T17:03:05.739Z,31.60
2022-10-01T17:04:09.830Z,34.10
2022-10-01T17:05:05.001Z,37.90
2022-10-01T17:06:05.266Z,32.40
2022-10-01T17:07:05.961Z,37.40
2022-10-01T17:08:04.359Z,33.20
2022-10-01T17:09:04.313Z,33.40
2022-10-01T17:10:05.050Z,30.70
2022-10-01T17:11:04.997Z,31.90
2022-10-01T17:12:05.297Z,33.10
2022-10-01T17:13:04.297Z,35.00
2022-10-01T17:14:04.975Z,39.30
2022-10-01T17:15:04.220Z,39.10
2022-10-01T17:16:04.255Z,34.10
2022-10-01T17:17:04.211Z,35.50
2022-10-01T17:18:05.012Z,40.50
2022-10-01T17:19:04.981Z,44.00
2022-10-01T17:20:04.241Z,41.50
2022-10-01T17:21:04.229Z,44.50
2022-10-01T17:22:04.174Z,43.40
2022-10-01T17:23:04.135Z,45.90
2022-10-01T17:24:04.204Z,47.80
2022-10-01T17:25:04.666Z,48.30
2022-10-01T17:26:04.985Z,50.10
2022-10-01T17:27:04.120Z,48.00
2022-10-01T17:28:04.180Z,48.30
2022-10-01T17:29:06.086Z,46.80
2022-10-01T17:30:13.741Z,53.60
2022-10-01T17:31:06.800Z,51.60
2022-10-01T17:32:04.133Z,51.70
2022-10-01T17:33:04.038Z,50.30
2022-10-01T17:34:04.053Z,49.90
2022-10-01T17:35:04.015Z,51.80
2022-10-01T17:36:04.010Z,53.50
2022-10-01T17:37:04.059Z,53.30
2022-10-01T17:38:03.985Z,51.80
2022-10-01T17:39:04.943Z,50.90
2022-10-01T17:40:03.996Z,49.90
2022-10-01T17:41:03.978Z,51.30
2022-10-01T17:42:04.699Z,51.80
2022-10-01T17:43:03.978Z,52.70
2022-10-01T17:44:05.436Z,51.00
2022-10-01T17:45:04.493Z,51.40
2022-10-01T17:46:05.841Z,49.10
2022-10-01T17:47:03.922Z,50.80
2022-10-01T17:48:03.860Z,53.80
2022-10-01T17:49:04.867Z,52.90
2022-10-01T17:50:03.872Z,56.10
2022-10-01T17:51:03.879Z,60.40
2022-10-01T17:52:03.878Z,58.80
2022-10-01T17:53:03.873Z,53.80
2022-10-01T17:54:03.790Z,51.10
2022-10-01T17:55:03.833Z,55.80
2022-10-01T17:56:03.807Z,56.00
2022-10-01T17:57:03.812Z,56.00
2022-10-01T17:58:03.755Z,61.10
2022-10-01T17:59:03.742Z,60.80
2022-10-01T18:00:04.741Z,63.80
2022-10-01T18:01:04.716Z,55.10
2022-10-01T18:02:18.591Z,62.80
2022-10-01T18:03:03.840Z,55.30
2022-10-01T18:04:03.765Z,56.90
2022-10-01T18:05:03.799Z,63.40
2022-10-01T18:06:04.682Z,59.00
2022-10-01T18:07:05.476Z,60.00
2022-10-01T18:08:03.683Z,64.70
2022-10-01T18:09:05.193Z,55.60
2022-10-01T18:10:04.572Z,56.50
2022-10-01T18:11:07.249Z,55.10
2022-10-01T18:12:08.623Z,56.70
2022-10-01T18:13:03.782Z,63.00
2022-10-01T18:14:04.591Z,52.40
2022-10-01T18:15:03.756Z,54.80
2022-10-01T18:16:03.794Z,56.40
2022-10-01T18:17:03.544Z,56.40
2022-10-01T18:20:04.305Z,51.10
2022-10-01T18:21:03.626Z,54.80
2022-10-01T18:22:11.832Z,53.80
2022-10-01T18:23:04.024Z,52.00
2022-10-01T18:24:05.104Z,53.50
2022-10-01T18:25:03.532Z,54.90
2022-10-01T18:26:03.527Z,57.20
2022-10-01T18:27:03.557Z,52.60
2022-10-01T18:28:03.550Z,54.30
2022-10-01T18:29:03.499Z,52.80
2022-10-01T18:30:03.529Z,52.50
2022-10-01T18:31:03.575Z,55.30
2022-10-01T18:32:04.318Z,51.30
2022-10-01T18:33:03.926Z,48.70
2022-10-01T18:34:03.484Z,51.90
2022-10-01T18:35:03.485Z,52.90
2022-10-01T18:36:03.494Z,51.70
2022-10-01T18:37:04.040Z,53.60
2022-10-01T18:38:03.503Z,54.60
2022-10-01T18:39:03.517Z,54.10
2022-10-01T18:40:03.947Z,54.80
2022-10-01T18:41:03.965Z,52.10
2022-10-01T18:42:03.525Z,53.70
2022-10-01T18:43:03.986Z,51.60
2022-10-01T18:44:03.277Z,51.20
2022-10-01T18:45:03.328Z,51.90
2022-10-01T18:46:04.050Z,51.50
2022-10-01T18:47:03.323Z,50.60
2022-10-01T18:48:03.342Z,53.50
2022-10-01T18:49:03.474Z,55.10
2022-10-01T18:50:03.150Z,54.30
2022-10-01T18:51:03.141Z,55.90
2022-10-01T18:52:04.064Z,53.60
2022-10-01T18:53:03.180Z,53.30
2022-10-01T18:54:03.108Z,60.30
2022-10-01T18:55:05.030Z,55.80
2022-10-01T18:56:04.192Z,52.90
2022-10-01T18:57:03.131Z,53.00
2022-10-01T18:58:03.093Z,56.00
2022-10-01T18:59:03.124Z,54.00
2022-10-01T19:00:04.062Z,54.30
2022-10-01T19:01:03.391Z,54.60
2022-10-01T19:02:04.650Z,50.60
2022-10-01T19:03:03.952Z,54.80
2022-10-01T19:04:03.097Z,51.60
2022-10-01T19:05:03.046Z,56.00
2022-10-01T19:06:03.064Z,56.40
2022-10-01T19:07:03.023Z,52.60
2022-10-01T19:08:03.804Z,56.30
2022-10-01T19:09:07.212Z,54.70
2022-10-01T19:10:02.980Z,56.20
2022-10-01T19:11:02.984Z,52.70
2022-10-01T19:12:02.939Z,52.50
2022-10-01T19:13:03.002Z,61.10
2022-10-01T19:14:02.954Z,52.60
2022-10-01T19:15:02.931Z,55.90
2022-10-01T19:16:03.745Z,55.30
2022-10-01T19:17:02.854Z,61.10
2022-10-01T19:18:02.896Z,56.10
2022-10-01T19:19:04.829Z,45.40
2022-10-01T19:20:02.876Z,38.30
2022-10-01T19:21:02.834Z,34.90
2022-10-01T19:22:03.764Z,31.10
2022-10-01T19:23:02.836Z,33.60
2022-10-01T19:24:02.777Z,30.50
2022-10-01T19:25:02.802Z,32.40
2022-10-01T19:26:02.788Z,33.40
2022-10-01T19:27:03.543Z,30.80
2022-10-01T19:28:03.780Z,30.90
2022-10-01T19:29:03.595Z,29.90
2022-10-01T19:30:02.772Z,31.60
2022-10-01T19:31:03.650Z,30.10
2022-10-01T19:32:04.184Z,28.90
2022-10-01T19:33:02.702Z,28.50
2022-10-01T19:34:02.732Z,28.50
2022-10-01T19:35:02.706Z,23.40
2022-10-01T19:36:02.723Z,26.30
2022-10-01T19:37:02.714Z,24.70
2022-10-01T19:38:02.663Z,25.60
2022-10-01T19:39:02.676Z,25.00
2022-10-01T19:40:03.491Z,25.50
2022-10-01T19:41:04.971Z,26.00
2022-10-01T19:42:02.645Z,25.50
2022-10-01T19:43:03.546Z,25.00
2022-10-01T19:44:02.626Z,28.10
2022-10-01T19:45:02.554Z,25.10
2022-10-01T19:46:02.583Z,28.30
2022-10-01T19:47:02.691Z,29.10
2022-10-01T19:48:05.004Z,30.70
2022-10-01T19:49:02.575Z,26.90
2022-10-01T19:50:02.538Z,26.90
2022-10-01T19:51:04.402Z,25.20
2022-10-01T19:52:02.496Z,26.50
2022-10-01T19:53:02.513Z,25.60
2022-10-01T19:54:03.503Z,28.40
2022-10-01T19:55:05.038Z,27.90
2022-10-01T19:56:02.494Z,24.50
2022-10-01T19:57:03.088Z,26.10
2022-10-01T19:58:02.466Z,27.30
2022-10-01T19:59:04.986Z,30.50
2022-10-01T20:00:03.596Z,29.50
2022-10-01T20:01:02.423Z,27.20
2022-10-01T20:02:03.685Z,30.00
2022-10-01T20:03:02.365Z,26.80
2022-10-01T20:04:02.348Z,31.10
2022-10-01T20:05:03.854Z,25.20
2022-10-01T20:06:01.343Z,27.90
2022-10-01T20:07:03.078Z,25.40
2022-10-01T20:08:02.317Z,23.90
2022-10-01T20:09:02.339Z,21.60
2022-10-01T20:10:05.630Z,22.50
2022-10-01T20:11:02.321Z,23.50
2022-10-01T20:12:03.061Z,18.30
2022-10-01T20:13:02.330Z,22.80
2022-10-01T20:14:02.958Z,18.90
2022-10-01T20:15:02.301Z,19.90
2022-10-01T20:16:02.314Z,21.00
2022-10-01T20:17:02.221Z,19.60
2022-10-01T20:18:02.202Z,19.30
2022-10-01T20:19:02.260Z,20.20
2022-10-01T20:20:07.586Z,19.70
2022-10-01T20:21:02.141Z,18.80
2022-10-01T20:22:02.158Z,21.00
2022-10-01T20:23:03.862Z,20.60
2022-10-01T20:24:02.127Z,21.40
2022-10-01T20:25:03.045Z,24.00
2022-10-01T20:26:02.157Z,23.40
2022-10-01T20:27:02.113Z,22.20
2022-10-01T20:28:02.120Z,24.50
2022-10-01T20:29:02.100Z,22.00
2022-10-01T20:30:02.057Z,23.20
2022-10-01T20:31:03.045Z,23.60
2022-10-01T20:32:02.050Z,24.70
2022-10-01T20:33:02.027Z,25.80
2022-10-01T20:34:02.064Z,28.50
2022-10-01T20:35:06.504Z,28.80
2022-10-01T20:36:02.015Z,29.40
2022-10-01T20:37:04.262Z,28.70
2022-10-01T20:38:02.713Z,25.60
2022-10-01T20:39:02.014Z,29.00
2022-10-01T20:40:01.956Z,26.70
2022-10-01T20:41:01.937Z,31.60
2022-10-01T20:42:01.933Z,26.90
2022-10-01T20:43:01.962Z,29.70
2022-10-01T20:44:01.926Z,30.50
2022-10-01T20:45:01.840Z,29.10
2022-10-01T20:46:01.913Z,32.40
2022-10-01T20:47:01.875Z,31.90
2022-10-01T20:48:01.871Z,32.00
2022-10-01T20:49:02.773Z,33.30
2022-10-01T20:50:08.829Z,36.50
2022-10-01T20:51:04.654Z,32.20
2022-10-01T20:52:06.316Z,30.20
2022-10-01T20:53:03.918Z,31.00
2022-10-01T20:54:02.614Z,33.00
2022-10-01T20:55:02.074Z,32.20
2022-10-01T20:56:01.742Z,32.70
2022-10-01T20:57:07.119Z,29.90
2022-10-01T20:58:01.828Z,32.00
2022-10-01T20:59:01.701Z,27.10
2022-10-01T21:00:02.723Z,27.10
2022-10-01T21:01:03.639Z,26.50
2022-10-01T21:02:02.859Z,23.80
2022-10-01T21:03:02.554Z,23.40
2022-10-01T21:04:25.941Z,22.30
2022-10-01T21:05:01.670Z,26.80
2022-10-01T21:06:01.721Z,25.90
2022-10-01T21:07:03.634Z,22.50
2022-10-01T21:08:03.335Z,21.00
2022-10-01T21:09:01.633Z,19.90
2022-10-01T21:10:03.173Z,21.80
2022-10-01T21:11:02.322Z,21.50
2022-10-01T21:12:05.250Z,22.10
2022-10-01T21:13:01.612Z,19.40
2022-10-01T21:14:02.102Z,19.10
2022-10-01T21:15:01.546Z,21.60
2022-10-01T21:16:01.607Z,18.40
2022-10-01T21:17:01.564Z,20.50
2022-10-01T21:18:01.527Z,19.20
2022-10-01T21:19:03.079Z,19.40
2022-10-01T21:20:01.559Z,17.80
